Time;durP1;ratioP1;P1;durP2;ratioP2;P2;SDS_P1;SDS_P2;PMS_P1;PMS_P2;Temp;Humidity;BMP_temperature;BMP_pressure;BME280_temperature;BME280_humidity;BME280_pressure;Samples;Min_cycle;Max_cycle;Signal;HPM_P1;HPM_P2
2021/12/01 00:02:32;;;;;;;15.43;8.00;;;;;;;6.96;100.00;99821.81;10413979;28;20474;-64
2021/12/01 00:07:54;;;;;;;13.60;7.57;;;;;;;7.00;100.00;99800.78;10413571;28;20080;-65
2021/12/01 00:13:20;;;;;;;16.95;7.22;;;;;;;6.99;100.00;99780.97;10412467;28;20049;-65
2021/12/01 00:18:42;;;;;;;10.68;6.82;;;;;;;7.03;100.00;99760.91;10413223;28;20050;-65
2021/12/01 00:24:04;;;;;;;15.95;7.93;;;;;;;7.02;100.00;99743.69;10412038;28;20049;-65
2021/12/01 00:29:26;;;;;;;13.02;8.00;;;;;;;7.08;100.00;99725.13;10411811;28;20049;-65
2021/12/01 00:34:48;;;;;;;15.75;9.10;;;;;;;7.08;100.00;99710.44;10412900;28;20045;-65
2021/12/01 00:40:11;;;;;;;12.07;8.35;;;;;;;7.10;100.00;99700.78;10411320;28;20052;-65
2021/12/01 00:45:33;;;;;;;11.77;7.43;;;;;;;7.11;100.00;99681.72;10412297;28;20055;-65
2021/12/01 00:50:55;;;;;;;11.50;7.80;;;;;;;7.12;100.00;99657.47;10411142;28;20069;-65
2021/12/01 00:56:17;;;;;;;12.05;7.65;;;;;;;7.24;100.00;99645.41;10411458;28;20063;-65
2021/12/01 01:01:39;;;;;;;9.88;7.30;;;;;;;7.24;100.00;99633.28;10398066;28;20045;-65
2021/12/01 01:07:01;;;;;;;9.45;7.25;;;;;;;7.33;100.00;99621.44;10398940;28;20482;-65
2021/12/01 01:18:06;;;;;;;6.40;5.15;;;;;;;7.53;100.00;99584.53;10430478;28;20052;-66
2021/12/01 01:23:29;;;;;;;6.63;5.38;;;;;;;7.51;100.00;99557.91;10401748;28;20047;-65
2021/12/01 01:28:51;;;;;;;5.93;5.07;;;;;;;7.57;100.00;99560.06;10430208;28;20053;-66
2021/12/01 01:34:13;;;;;;;6.43;5.15;;;;;;;7.61;100.00;99536.38;10409773;28;20063;-66
2021/12/01 01:39:35;;;;;;;6.43;5.32;;;;;;;7.65;100.00;99511.88;10400428;28;20041;-66
2021/12/01 01:44:56;;;;;;;6.20;5.30;;;;;;;7.74;100.00;99500.81;10410921;28;20049;-66
2021/12/01 01:55:43;;;;;;;6.32;5.25;;;;;;;7.80;100.00;99474.44;10411193;28;20062;-66
2021/12/01 02:06:48;;;;;;;8.60;6.38;;;;;;;7.93;100.00;99434.47;10392504;28;20054;-66
2021/12/01 02:12:10;;;;;;;7.22;5.88;;;;;;;7.98;100.00;99418.59;10411067;28;20054;-66
2021/12/01 02:17:32;;;;;;;8.13;6.55;;;;;;;8.02;100.00;99407.00;10412206;28;20382;-65
2021/12/01 02:22:54;;;;;;;11.43;7.45;;;;;;;8.11;100.00;99385.56;10414799;28;20540;-66
2021/12/01 02:28:16;;;;;;;10.85;8.18;;;;;;;8.19;100.00;99373.66;10428688;28;20141;-66
2021/12/01 02:33:38;;;;;;;13.65;9.00;;;;;;;8.23;100.00;99348.28;10409372;28;20053;-66
2021/12/01 02:39:03;;;;;;;14.85;10.48;;;;;;;8.32;100.00;99331.97;10409424;28;20482;-66
2021/12/01 02:44:27;;;;;;;16.93;12.57;;;;;;;8.40;100.00;99311.44;10409066;28;20053;-65
2021/12/01 02:49:52;;;;;;;19.63;12.88;;;;;;;8.52;100.00;99303.47;10412612;28;20057;-66
2021/12/01 02:55:19;;;;;;;21.20;14.70;;;;;;;8.67;100.00;99281.47;10416142;28;20080;-66
2021/12/01 03:00:41;;;;;;;21.85;14.52;;;;;;;8.68;100.00;99257.97;10418123;28;20041;-65
2021/12/01 03:06:03;;;;;;;23.15;16.15;;;;;;;8.79;100.00;99244.94;10433666;28;20053;-65
2021/12/01 03:11:25;;;;;;;27.13;18.05;;;;;;;8.94;100.00;99228.06;10427597;28;20067;-66
2021/12/01 03:16:50;;;;;;;27.52;18.75;;;;;;;9.04;100.00;99210.75;10416546;28;20053;-65
2021/12/01 03:22:13;;;;;;;29.47;19.40;;;;;;;9.04;100.00;99192.56;10399313;28;20129;-66
2021/12/01 03:27:36;;;;;;;30.48;19.33;;;;;;;9.16;100.00;99170.75;10414473;28;20060;-66
2021/12/01 03:32:58;;;;;;;25.15;16.52;;;;;;;9.32;100.00;99165.03;10415262;28;20065;-66
2021/12/01 03:38:25;;;;;;;22.90;15.23;;;;;;;9.39;100.00;99160.97;10400745;28;20053;-66
2021/12/01 03:43:47;;;;;;;17.48;11.70;;;;;;;9.46;100.00;99138.66;10413202;28;20045;-66
2021/12/01 03:49:09;;;;;;;17.35;11.50;;;;;;;9.38;100.00;99128.94;10414315;28;20053;-66
2021/12/01 03:54:31;;;;;;;13.60;9.00;;;;;;;9.52;100.00;99114.75;10413680;28;20596;-65
2021/12/01 03:59:55;;;;;;;11.00;7.88;;;;;;;9.51;100.00;99095.69;10413138;28;20056;-66
2021/12/01 04:05:27;;;;;;;9.80;6.88;;;;;;;9.54;100.00;99088.44;10373141;28;20060;-64
2021/12/01 04:10:49;;;;;;;7.90;5.95;;;;;;;9.57;100.00;99062.16;10400351;28;20076;-65
2021/12/01 04:16:11;;;;;;;6.32;5.30;;;;;;;9.64;100.00;99057.25;10413221;28;20072;-65
2021/12/01 04:21:33;;;;;;;6.43;4.25;;;;;;;9.61;100.00;99049.69;10412710;28;20069;-66
2021/12/01 04:26:55;;;;;;;4.38;3.85;;;;;;;9.63;100.00;99034.78;10412847;28;20523;-66
2021/12/01 04:32:17;;;;;;;3.30;3.00;;;;;;;9.62;100.00;99017.53;10372011;28;20065;-66
2021/12/01 04:37:39;;;;;;;3.47;2.47;;;;;;;9.60;100.00;99011.66;10396314;28;20049;-66
2021/12/01 04:43:02;;;;;;;2.20;2.00;;;;;;;9.61;100.00;99008.09;10411518;28;20052;-67
2021/12/01 04:48:24;;;;;;;1.40;1.27;;;;;;;9.69;100.00;98992.63;10411162;28;20068;-65
2021/12/01 04:53:45;;;;;;;1.38;1.27;;;;;;;9.60;100.00;98988.25;10411039;28;20049;-66
2021/12/01 04:59:08;;;;;;;1.40;1.30;;;;;;;9.64;100.00;98984.41;10411763;28;20060;-65
2021/12/01 05:04:29;;;;;;;1.40;1.30;;;;;;;9.59;100.00;98960.59;10410574;28;20064;-66
2021/12/01 05:09:51;;;;;;;1.30;1.20;;;;;;;9.59;100.00;98942.41;10410191;28;20053;-66
2021/12/01 05:15:14;;;;;;;1.50;1.40;;;;;;;9.52;100.00;98928.28;10410928;28;20128;-65
2021/12/01 05:20:36;;;;;;;1.48;1.38;;;;;;;9.51;100.00;98911.03;10409827;28;20046;-66
2021/12/01 05:25:58;;;;;;;1.92;1.73;;;;;;;9.55;100.00;98896.81;10410800;28;20494;-66
2021/12/01 05:31:20;;;;;;;2.97;1.85;;;;;;;9.59;100.00;98872.97;10370384;28;20486;-66
2021/12/01 05:36:42;;;;;;;2.58;1.80;;;;;;;9.57;100.00;98863.69;10380781;28;20127;-66
2021/12/01 05:42:04;;;;;;;2.92;2.00;;;;;;;9.54;100.00;98871.75;10410116;28;20494;-66
2021/12/01 05:47:26;;;;;;;1.92;1.83;;;;;;;9.52;100.00;98836.47;10410159;28;20060;-65
2021/12/01 05:52:48;;;;;;;2.03;1.83;;;;;;;9.50;100.00;98836.56;10410143;28;20046;-66
2021/12/01 05:58:10;;;;;;;2.05;1.95;;;;;;;9.48;100.00;98807.28;10369679;28;20061;-66
2021/12/01 06:03:32;;;;;;;3.13;1.95;;;;;;;9.48;100.00;98786.47;10390859;28;20512;-65
2021/12/01 06:08:55;;;;;;;3.13;2.30;;;;;;;9.46;100.00;98785.00;10410036;28;20054;-66
2021/12/01 06:14:17;;;;;;;2.03;1.83;;;;;;;9.37;100.00;98781.47;10409027;28;20042;-65
2021/12/01 06:19:40;;;;;;;2.38;2.17;;;;;;;9.33;100.00;98772.28;10410149;28;20223;-65
2021/12/01 06:25:03;;;;;;;1.95;1.75;;;;;;;9.28;100.00;98776.28;10414928;28;20497;-67
2021/12/01 06:30:26;;;;;;;3.33;1.70;;;;;;;9.26;100.00;98740.03;10416842;28;20076;-65
2021/12/01 06:35:49;;;;;;;1.77;1.30;;;;;;;9.19;100.00;98727.75;10418887;28;20052;-65
2021/12/01 06:41:11;;;;;;;2.38;1.45;;;;;;;9.19;100.00;98723.34;10417048;28;20049;-65
2021/12/01 06:46:33;;;;;;;1.50;1.40;;;;;;;9.13;100.00;98702.31;10418308;28;20045;-66
2021/12/01 06:51:55;;;;;;;1.13;1.10;;;;;;;9.07;100.00;98703.69;10416538;28;20081;-65
2021/12/01 06:57:17;;;;;;;1.60;1.50;;;;;;;9.02;100.00;98698.09;10416423;28;20075;-64
2021/12/01 07:02:39;;;;;;;1.35;1.25;;;;;;;9.00;100.00;98681.03;10416292;28;20056;-65
2021/12/01 07:08:01;;;;;;;1.63;1.50;;;;;;;8.98;100.00;98668.19;10415842;28;20057;-65
2021/12/01 07:13:23;;;;;;;1.60;1.50;;;;;;;8.93;100.00;98653.97;10415722;28;20041;-65
2021/12/01 07:18:45;;;;;;;1.42;1.33;;;;;;;8.91;100.00;98648.91;10403205;28;20379;-65
2021/12/01 07:24:07;;;;;;;1.70;1.40;;;;;;;8.88;100.00;98654.38;10413453;28;20493;-65
2021/12/01 07:29:30;;;;;;;2.05;1.38;;;;;;;8.86;100.00;98619.97;10415379;28;20064;-65
2021/12/01 07:34:52;;;;;;;2.85;1.40;;;;;;;8.83;100.00;98628.03;10400671;28;20060;-65
2021/12/01 07:40:14;;;;;;;1.58;1.48;;;;;;;8.80;100.00;98607.53;10414830;28;20042;-66
2021/12/01 07:45:36;;;;;;;1.95;1.73;;;;;;;8.80;100.00;98586.75;10413480;28;20064;-65
2021/12/01 07:50:58;;;;;;;1.60;1.50;;;;;;;8.79;100.00;98574.72;10414270;28;20047;-65
2021/12/01 07:56:20;;;;;;;1.80;1.70;;;;;;;8.77;100.00;98576.63;10415721;28;20068;-65
2021/12/01 08:01:45;;;;;;;1.88;1.77;;;;;;;8.74;100.00;98566.53;10413543;28;20055;-66
2021/12/01 08:07:07;;;;;;;2.07;1.97;;;;;;;8.81;100.00;98552.00;10414574;28;20053;-65
2021/12/01 08:12:29;;;;;;;1.80;1.70;;;;;;;8.82;100.00;98545.03;10429481;28;20158;-65
2021/12/01 08:17:51;;;;;;;2.13;1.92;;;;;;;8.86;100.00;98536.81;10413277;28;20052;-65
2021/12/01 08:23:13;;;;;;;1.77;1.67;;;;;;;8.86;100.00;98523.84;10412242;28;20056;-65
2021/12/01 08:28:36;;;;;;;2.45;2.03;;;;;;;8.86;100.00;98515.22;10413839;28;20057;-65
2021/12/01 08:33:58;;;;;;;2.67;1.40;;;;;;;8.88;100.00;98493.31;10413009;28;20045;-65
2021/12/01 08:39:19;;;;;;;2.17;1.73;;;;;;;8.87;100.00;98494.31;10412152;28;20053;-65
2021/12/01 08:44:45;;;;;;;1.92;1.73;;;;;;;8.90;100.00;98468.00;10398806;28;20056;-65
2021/12/01 08:50:09;;;;;;;2.13;1.38;;;;;;;8.91;100.00;98461.84;10413914;28;20054;-65
2021/12/01 08:55:31;;;;;;;1.60;1.27;;;;;;;8.92;100.00;98481.66;10434918;28;20057;-65
2021/12/01 09:01:02;;;;;;;1.40;1.30;;;;;;;8.95;100.00;98459.81;10412262;28;20136;-66
2021/12/01 09:06:24;;;;;;;1.55;1.25;;;;;;;8.92;100.00;98454.88;10412009;28;20060;-65
2021/12/01 09:11:47;;;;;;;1.33;1.23;;;;;;;8.98;100.00;98416.16;10411703;28;20053;-65
2021/12/01 09:17:10;;;;;;;1.50;1.40;;;;;;;9.01;100.00;98418.47;10414483;28;20057;-71
2021/12/01 09:22:33;;;;;;;1.92;1.35;;;;;;;9.07;100.00;98415.25;10397610;28;20041;-65
2021/12/01 09:27:55;;;;;;;2.03;1.48;;;;;;;9.09;100.00;98405.53;10410313;28;20053;-66
2021/12/01 09:33:17;;;;;;;1.30;1.20;;;;;;;9.12;100.00;98384.44;10411394;28;20081;-65
2021/12/01 09:38:40;;;;;;;1.25;1.15;;;;;;;9.17;100.00;98371.78;10410195;28;20375;-65
2021/12/01 09:44:02;;;;;;;2.47;1.13;;;;;;;9.28;100.00;98358.59;10410035;28;20053;-65
2021/12/01 09:49:24;;;;;;;1.33;1.23;;;;;;;9.26;100.00;98344.09;10410841;28;20097;-65
2021/12/01 09:54:46;;;;;;;1.77;1.30;;;;;;;9.27;100.00;98325.75;10396818;28;20049;-65
2021/12/01 10:00:08;;;;;;;1.48;1.27;;;;;;;9.24;100.00;98315.66;10402062;28;20055;-65
2021/12/01 10:06:02;;;;;;;1.60;1.50;;;;;;;9.32;100.00;98323.50;10419421;28;20061;-65
2021/12/01 10:11:33;;;;;;;1.60;1.50;;;;;;;9.43;100.00;98318.06;10431330;28;20176;-66
2021/12/01 10:16:55;;;;;;;1.73;1.48;;;;;;;9.48;100.00;98302.81;10406283;28;20049;-64
2021/12/01 10:22:16;;;;;;;2.45;1.55;;;;;;;9.43;100.00;98309.44;10425092;28;20052;-65
2021/12/01 10:27:38;;;;;;;1.65;1.30;;;;;;;9.45;100.00;98295.34;10419805;28;20053;-65
2021/12/01 10:33:14;;;;;;;2.05;1.10;;;;;;;9.55;100.00;98285.63;10418230;28;20569;-66
2021/12/01 10:38:40;;;;;;;3.90;1.40;;;;;;;9.53;100.00;98287.56;10417301;28;20127;-66
2021/12/01 10:44:09;;;;;;;2.03;1.20;;;;;;;9.53;100.00;98293.56;10425343;28;20038;-66
2021/12/01 10:49:34;;;;;;;3.47;1.00;;;;;;;9.58;100.00;98267.13;10417926;28;20053;-65
2021/12/01 10:55:08;;;;;;;2.20;0.90;;;;;;;9.68;100.00;98247.00;10416846;28;20054;-66
2021/12/01 11:00:32;;;;;;;1.98;0.75;;;;;;;9.76;98.31;98244.41;10416956;28;20414;-65
2021/12/01 11:06:07;;;;;;;3.30;0.70;;;;;;;9.70;99.56;98240.66;10416524;28;20061;-66
2021/12/01 11:11:38;;;;;;;2.07;0.67;;;;;;;9.46;100.00;98223.34;10388535;28;20049;-66
2021/12/01 11:17:39;;;;;;;4.07;1.00;;;;;;;9.25;100.00;98238.47;10416114;28;20049;-65
2021/12/01 11:23:25;;;;;;;5.60;1.15;;;;;;;9.26;100.00;98225.34;10405386;28;20536;-65
2021/12/01 11:28:51;;;;;;;4.50;1.00;;;;;;;9.35;100.00;98208.81;10414039;28;20063;-66
2021/12/01 11:34:15;;;;;;;4.90;0.90;;;;;;;9.40;100.00;98201.38;10415781;28;20056;-66
2021/12/01 11:39:37;;;;;;;7.05;0.95;;;;;;;9.46;100.00;98194.72;10415767;28;20498;-66
2021/12/01 11:44:59;;;;;;;4.30;0.82;;;;;;;9.43;99.39;98184.63;10398929;28;20394;-65
2021/12/01 11:50:35;;;;;;;9.05;1.02;;;;;;;9.55;97.62;98186.81;10401888;28;20080;-65
2021/12/01 11:55:59;;;;;;;5.25;0.82;;;;;;;9.57;95.45;98177.88;10414434;28;20145;-66
2021/12/01 12:01:20;;;;;;;8.98;1.00;;;;;;;9.59;95.87;98165.53;10415961;28;20052;-65
2021/12/01 12:06:47;;;;;;;6.15;0.98;;;;;;;9.67;92.53;98151.75;10414291;28;20057;-65
2021/12/01 12:12:19;;;;;;;3.75;0.88;;;;;;;9.79;93.05;98153.06;10415182;28;20045;-67
2021/12/01 12:17:41;;;;;;;5.18;0.85;;;;;;;9.65;93.66;98158.88;10399989;28;20049;-66
2021/12/01 12:23:07;;;;;;;6.63;1.40;;;;;;;9.57;94.76;98140.66;10377327;28;20071;-66
2021/12/01 12:28:38;;;;;;;9.00;1.25;;;;;;;9.69;94.27;98131.59;10415554;28;20537;-65
2021/12/01 12:34:04;;;;;;;8.35;1.58;;;;;;;9.77;91.65;98113.38;10414814;28;20076;-65
2021/12/01 12:39:32;;;;;;;9.27;1.30;;;;;;;9.74;92.32;98131.94;10399192;28;20053;-67
2021/12/01 12:44:56;;;;;;;6.15;0.90;;;;;;;9.59;96.08;98117.91;10376087;28;20107;-67
2021/12/01 12:50:22;;;;;;;5.32;1.00;;;;;;;9.56;95.84;98113.81;10412500;28;20159;-65
2021/12/01 12:55:44;;;;;;;10.65;1.23;;;;;;;9.63;95.25;98103.59;10397320;28;20049;-65
2021/12/01 13:01:06;;;;;;;12.55;1.52;;;;;;;9.63;94.49;98103.59;10412485;28;20045;-66
2021/12/01 13:06:30;;;;;;;8.02;1.40;;;;;;;9.63;93.91;98096.63;10399047;28;20045;-65
2021/12/01 13:11:58;;;;;;;14.13;1.70;;;;;;;9.55;92.19;98112.19;10385431;28;20136;-65
2021/12/01 13:17:21;;;;;;;7.75;1.42;;;;;;;9.44;92.76;98111.69;10403949;28;20052;-66
2021/12/01 13:22:57;;;;;;;11.60;1.90;;;;;;;9.42;92.07;98115.41;10397054;28;20052;-65
2021/12/01 13:28:30;;;;;;;18.83;2.30;;;;;;;9.32;89.93;98114.72;10411774;28;20053;-66
2021/12/01 13:34:20;;;;;;;13.90;1.92;;;;;;;9.22;89.75;98114.84;10409498;28;20061;-66
2021/12/01 13:39:41;;;;;;;9.35;1.55;;;;;;;8.97;91.16;98128.72;10410176;28;20053;-65
2021/12/01 13:45:09;;;;;;;12.18;1.80;;;;;;;9.00;87.15;98140.56;10410813;28;20046;-65
2021/12/01 13:50:31;;;;;;;10.10;1.75;;;;;;;8.97;85.13;98105.34;10423893;28;20057;-65
2021/12/01 13:55:52;;;;;;;8.45;1.00;;;;;;;8.90;84.36;98119.91;10411007;28;20505;-66
2021/12/01 14:01:16;;;;;;;6.82;1.13;;;;;;;8.82;85.51;98124.25;10409887;28;20068;-65
2021/12/01 14:06:39;;;;;;;5.07;1.08;;;;;;;8.83;83.91;98139.69;10410129;28;20049;-65
2021/12/01 14:12:06;;;;;;;12.43;1.40;;;;;;;8.79;83.81;98120.16;10410623;28;20080;-65
2021/12/01 14:17:28;;;;;;;;;;;;;;;8.73;83.81;98118.19;10405383;28;20141;-65
2021/12/01 14:22:54;;;;;;;6.15;1.17;;;;;;;8.68;84.00;98120.44;10427444;28;19921;-65
2021/12/01 14:28:17;;;;;;;9.20;1.13;;;;;;;8.57;84.70;98127.66;10397997;28;20060;-63
2021/12/01 14:33:40;;;;;;;9.75;1.35;;;;;;;8.28;89.95;98139.31;10397298;28;20132;-63
2021/12/01 14:39:05;;;;;;;7.50;1.50;;;;;;;8.22;91.17;98147.66;10398468;28;20152;-65
2021/12/01 14:44:33;;;;;;;8.95;1.30;;;;;;;8.18;91.32;98146.34;10361706;28;20128;-66
2021/12/01 14:49:56;;;;;;;9.30;1.33;;;;;;;8.07;92.74;98164.69;10386897;28;20416;-65
2021/12/01 14:55:36;;;;;;;12.85;1.25;;;;;;;7.80;95.33;98151.78;10405536;28;20045;-64
2021/12/01 15:01:09;;;;;;;6.90;1.23;;;;;;;7.75;96.28;98148.81;10416759;28;20049;-62
2021/12/01 15:06:31;;;;;;;8.70;1.33;;;;;;;7.78;94.59;98164.09;10416595;28;20079;-66
2021/12/01 15:11:53;;;;;;;6.03;1.00;;;;;;;7.86;88.65;98192.69;10418931;28;20061;-65
2021/12/01 15:17:18;;;;;;;4.28;0.90;;;;;;;7.85;85.92;98183.31;10418599;28;20049;-66
2021/12/01 15:23:10;;;;;;;6.37;0.80;;;;;;;7.86;84.89;98167.59;10415919;28;20037;-66
2021/12/01 15:28:32;;;;;;;6.82;0.88;;;;;;;7.87;84.13;98169.22;10415249;28;20469;-66
2021/12/01 15:33:56;;;;;;;12.30;1.60;;;;;;;7.85;84.64;98186.69;10417620;28;20490;-65
2021/12/01 15:39:36;;;;;;;8.55;1.45;;;;;;;7.75;85.27;98177.34;10390180;28;20584;-66
2021/12/01 15:44:57;;;;;;;5.15;1.05;;;;;;;7.75;84.81;98190.31;10397719;28;20069;-66
2021/12/01 15:50:25;;;;;;;9.10;1.45;;;;;;;7.67;83.82;98192.81;10402684;28;20049;-66
2021/12/01 15:55:52;;;;;;;9.18;1.30;;;;;;;7.57;84.51;98223.13;10413781;28;20045;-65
2021/12/01 16:01:15;;;;;;;13.20;1.25;;;;;;;7.41;86.70;98196.22;10415137;28;20052;-65
2021/12/01 16:06:37;;;;;;;9.05;1.90;;;;;;;7.47;86.31;98211.22;10424586;28;20045;-65
2021/12/01 16:11:59;;;;;;;20.42;2.05;;;;;;;7.46;86.04;98230.31;10414938;28;20054;-66
2021/12/01 16:17:21;;;;;;;19.73;2.75;;;;;;;7.41;86.84;98253.22;10414866;28;20137;-66
2021/12/01 16:22:45;;;;;;;16.85;2.15;;;;;;;7.27;88.96;98231.22;10413856;28;20040;-63
2021/12/01 16:28:07;;;;;;;10.07;1.95;;;;;;;7.26;88.32;98252.88;10414644;28;20111;-67
2021/12/01 16:33:29;;;;;;;14.73;2.42;;;;;;;7.05;93.42;98270.38;10414186;28;20064;-65
2021/12/01 16:38:51;;;;;;;16.58;2.22;;;;;;;6.92;93.70;98277.63;10415488;28;20075;-65
2021/12/01 16:44:12;;;;;;;13.82;1.88;;;;;;;6.95;91.69;98269.59;10417646;28;20050;-65
2021/12/01 16:49:34;;;;;;;11.15;2.55;;;;;;;7.04;90.49;98296.44;10418697;28;20148;-65
2021/12/01 16:54:58;;;;;;;15.27;1.73;;;;;;;7.08;88.02;98295.19;10364655;28;20042;-65
2021/12/01 17:00:27;;;;;;;18.30;2.33;;;;;;;7.06;88.42;98300.50;10377437;28;20056;-65
2021/12/01 17:05:51;;;;;;;15.13;2.70;;;;;;;7.05;87.38;98303.25;10410939;28;20550;-66
2021/12/01 17:11:14;;;;;;;11.95;1.90;;;;;;;7.10;85.87;98294.09;10409920;28;20057;-65
2021/12/01 17:16:35;;;;;;;9.07;1.75;;;;;;;7.09;85.48;98336.50;10411625;28;20166;-66
2021/12/01 17:21:57;;;;;;;11.75;2.10;;;;;;;7.07;84.96;98340.16;10410236;28;20510;-65
2021/12/01 17:27:23;;;;;;;10.18;2.08;;;;;;;7.07;85.45;98338.41;10403565;28;20045;-66
2021/12/01 17:32:45;;;;;;;13.07;2.05;;;;;;;7.14;85.22;98354.22;10411632;28;20148;-65
2021/12/01 17:38:07;;;;;;;10.70;2.13;;;;;;;7.04;86.23;98369.75;10411470;28;20434;-65
2021/12/01 17:43:30;;;;;;;13.88;2.40;;;;;;;7.02;85.39;98371.66;10410272;28;20573;-66
2021/12/01 17:48:51;;;;;;;12.63;1.83;;;;;;;7.01;85.08;98413.25;10411251;28;20049;-68
2021/12/01 17:54:13;;;;;;;18.80;2.22;;;;;;;7.05;84.17;98423.19;10410426;28;20064;-67
2021/12/01 17:59:35;;;;;;;14.23;1.77;;;;;;;7.17;82.83;98406.56;10410004;28;20394;-65
2021/12/01 18:04:57;;;;;;;18.13;1.67;;;;;;;7.15;82.72;98412.84;10410078;28;20041;-65
2021/12/01 18:10:20;;;;;;;17.10;1.98;;;;;;;7.10;83.18;98431.38;10410025;28;20398;-68
2021/12/01 18:15:42;;;;;;;15.55;2.05;;;;;;;6.96;84.56;98464.63;10410964;28;20049;-65
2021/12/01 18:21:04;;;;;;;10.50;2.13;;;;;;;6.91;84.81;98470.19;10417296;28;20057;-66
2021/12/01 18:26:41;;;;;;;13.23;1.40;;;;;;;6.86;83.47;98511.19;10409601;28;20080;-67
2021/12/01 18:32:03;;;;;;;11.07;1.70;;;;;;;6.84;84.75;98513.09;10377581;28;20052;-66
2021/12/01 18:37:25;;;;;;;14.52;1.80;;;;;;;6.78;85.50;98539.53;10397676;28;20084;-64
2021/12/01 18:42:48;;;;;;;5.88;1.42;;;;;;;6.76;85.35;98538.03;10417236;28;20053;-66
2021/12/01 18:48:09;;;;;;;9.75;1.90;;;;;;;6.79;84.29;98554.13;10416649;28;20073;-65
2021/12/01 18:53:32;;;;;;;11.43;1.63;;;;;;;6.68;85.32;98580.09;10416524;28;20053;-66
2021/12/01 18:58:54;;;;;;;7.97;1.60;;;;;;;6.64;85.62;98587.44;10417258;28;20489;-65
2021/12/01 19:04:17;;;;;;;9.07;1.45;;;;;;;6.58;85.50;98624.16;10415695;28;20497;-65
2021/12/01 19:09:40;;;;;;;7.57;1.40;;;;;;;6.58;86.54;98650.03;10415251;28;20057;-66
2021/12/01 19:15:02;;;;;;;12.45;1.77;;;;;;;6.39;87.67;98675.81;10416468;28;20047;-65
2021/12/01 19:20:24;;;;;;;5.32;1.20;;;;;;;6.30;91.61;98705.00;10414671;28;20092;-66
2021/12/01 19:25:46;;;;;;;10.23;1.40;;;;;;;6.01;92.69;98722.03;10415344;28;20108;-64
2021/12/01 19:31:08;;;;;;;7.30;1.13;;;;;;;5.93;93.06;98719.25;10414189;28;20482;-64
2021/12/01 19:36:30;;;;;;;8.13;1.23;;;;;;;5.76;90.86;98743.00;10414770;28;20080;-64
2021/12/01 19:41:57;;;;;;;6.68;1.00;;;;;;;5.75;87.78;98749.09;10415032;28;20094;-64
2021/12/01 19:47:18;;;;;;;5.25;1.00;;;;;;;5.61;88.67;98780.38;10414389;28;20061;-64
2021/12/01 19:52:42;;;;;;;6.95;1.00;;;;;;;5.56;89.91;98777.31;10414567;28;20049;-64
2021/12/01 19:58:04;;;;;;;4.10;0.80;;;;;;;5.55;90.07;98806.66;10376006;28;20461;-64
2021/12/01 20:03:27;;;;;;;5.45;0.73;;;;;;;5.35;91.76;98809.97;10379514;28;20049;-64
2021/12/01 20:08:53;;;;;;;6.25;1.10;;;;;;;5.24;93.67;98812.50;10427678;28;20883;-65
2021/12/01 20:14:15;;;;;;;7.75;1.13;;;;;;;5.41;90.39;98834.50;10412620;28;20053;-66
2021/12/01 20:19:39;;;;;;;6.72;0.93;;;;;;;5.36;90.82;98840.03;10413271;28;20509;-64
2021/12/01 20:25:06;;;;;;;5.28;1.20;;;;;;;5.32;89.90;98851.50;10412039;28;20046;-64
2021/12/01 20:30:28;;;;;;;4.25;0.80;;;;;;;5.27;88.75;98874.25;10412169;28;20053;-64
2021/12/01 20:35:50;;;;;;;6.15;1.25;;;;;;;5.16;90.25;98871.66;10371696;28;20049;-65
2021/12/01 20:41:12;;;;;;;6.05;1.10;;;;;;;5.09;90.45;98878.22;10395105;28;20055;-64
2021/12/01 20:46:55;;;;;;;4.70;0.85;;;;;;;5.25;87.71;98896.78;10412757;28;20072;-65
2021/12/01 20:52:57;;;;;;;4.65;1.13;;;;;;;5.28;87.45;98916.44;10412456;28;20132;-64
2021/12/01 20:58:17;;;;;;;9.98;1.17;;;;;;;5.45;87.10;98922.00;10411970;28;20053;-64
2021/12/01 21:03:41;;;;;;;6.32;1.13;;;;;;;5.43;86.64;98935.97;10411964;28;20057;-65
2021/12/01 21:09:51;;;;;;;6.80;1.15;;;;;;;5.43;87.19;98936.78;10410996;28;20054;-64
2021/12/01 21:14:50;;;;;;;5.45;1.23;;;;;;;5.33;87.37;98946.16;10410824;28;20050;-64
2021/12/01 21:20:12;;;;;;;8.60;0.98;;;;;;;5.30;89.13;98954.13;10410970;28;20053;-64
2021/12/01 21:25:38;;;;;;;5.45;1.38;;;;;;;5.40;87.86;98957.66;10408720;28;20046;-65
2021/12/01 21:31:08;;;;;;;11.03;1.87;;;;;;;5.43;88.36;98980.69;10410955;28;20057;-64
2021/12/01 21:36:31;;;;;;;10.45;1.60;;;;;;;5.42;88.37;98984.22;10410133;28;20677;-65
2021/12/01 21:41:52;;;;;;;9.38;1.30;;;;;;;5.18;89.82;98988.59;10410443;28;20053;-65
2021/12/01 21:47:16;;;;;;;7.03;1.10;;;;;;;5.07;89.27;99011.78;10424700;28;20053;-65
2021/12/01 21:52:40;;;;;;;6.80;1.38;;;;;;;5.12;87.60;99009.66;10410060;28;20065;-64
2021/12/01 21:58:02;;;;;;;6.85;0.73;;;;;;;4.98;90.05;99032.25;10419752;28;20057;-65
2021/12/01 22:03:25;;;;;;;3.42;0.90;;;;;;;4.94;90.14;99029.06;10418643;28;20498;-64
2021/12/01 22:08:48;;;;;;;5.32;1.00;;;;;;;5.04;89.09;99037.81;10421862;28;20535;-64
2021/12/01 22:14:10;;;;;;;4.80;0.80;;;;;;;4.84;87.37;99056.44;10436767;28;20137;-63
2021/12/01 22:19:32;;;;;;;4.80;0.85;;;;;;;4.84;88.53;99063.38;10418854;28;20049;-64
2021/12/01 22:24:55;;;;;;;6.22;0.73;;;;;;;4.71;88.86;99065.16;10417717;28;20045;-64
2021/12/01 22:30:20;;;;;;;5.18;0.82;;;;;;;4.73;89.53;99089.91;10417448;28;20048;-63
2021/12/01 22:35:42;;;;;;;3.85;0.85;;;;;;;4.68;88.16;99110.97;10417862;28;20057;-65
2021/12/01 22:41:06;;;;;;;7.15;0.90;;;;;;;4.60;91.88;99133.91;10416866;28;20054;-64
2021/12/01 22:46:31;;;;;;;4.95;0.80;;;;;;;4.47;93.24;99122.75;10416502;28;20041;-63
2021/12/01 22:51:54;;;;;;;8.45;0.88;;;;;;;4.46;93.93;99118.50;10417486;28;20056;-64
2021/12/01 22:57:18;;;;;;;8.02;1.10;;;;;;;4.43;92.37;99126.44;10405375;28;20421;-63
2021/12/01 23:02:46;;;;;;;4.05;0.90;;;;;;;4.33;92.31;99135.75;10437893;28;20041;-63
2021/12/01 23:08:11;;;;;;;10.43;1.08;;;;;;;4.44;92.14;99133.25;10418927;28;20060;-64
2021/12/01 23:13:32;;;;;;;6.68;1.10;;;;;;;4.49;92.03;99146.69;10415764;28;20045;-64
2021/12/01 23:18:54;;;;;;;5.20;1.00;;;;;;;4.53;90.81;99171.34;10416080;28;20063;-64
2021/12/01 23:29:58;;;;;;;6.30;1.13;;;;;;;4.72;89.69;99164.03;10415296;28;20060;-64
2021/12/01 23:35:20;;;;;;;7.50;1.50;;;;;;;4.53;88.46;99169.59;10415333;28;20068;-63
2021/12/01 23:40:42;;;;;;;10.95;1.13;;;;;;;4.54;86.94;99180.72;10394363;28;20801;-63
2021/12/01 23:46:40;;;;;;;7.22;1.27;;;;;;;4.50;86.99;99184.47;10427488;28;20057;-64
2021/12/01 23:52:19;;;;;;;9.57;1.30;;;;;;;4.56;87.51;99194.34;10414421;28;20511;-64
2021/12/01 23:57:42;;;;;;;9.35;1.40;;;;;;;4.57;88.58;99196.00;10402596;28;20053;-64
